Time;durP1;ratioP1;P1;durP2;ratioP2;P2;SDS_P1;SDS_P2;PMS_P1;PMS_P2;Temp;Humidity;BMP_temperature;BMP_pressure;BME280_temperature;BME280_humidity;BME280_pressure;Samples;Min_cycle;Max_cycle;Signal;HPM_P1;HPM_P2
2021/12/18 00:00:36;;;;;;;2.08;1.45;;;8.20;90.70;;;;;;5026328;28;20030;-65
2021/12/18 00:03:02;;;;;;;1.85;1.40;;;8.20;90.80;;;;;;5031488;28;20678;-65
2021/12/18 00:05:28;;;;;;;2.00;1.30;;;8.20;90.80;;;;;;5020282;28;20084;-65
2021/12/18 00:07:54;;;;;;;2.08;1.50;;;8.20;90.90;;;;;;5019774;28;20090;-65
2021/12/18 00:10:23;;;;;;;3.78;2.15;;;8.20;91.10;;;;;;5017472;28;20037;-65
2021/12/18 00:12:52;;;;;;;2.05;1.40;;;8.20;90.90;;;;;;5011847;28;20608;-65
2021/12/18 00:15:20;;;;;;;2.20;1.50;;;8.20;90.80;;;;;;5004505;28;20033;-64
2021/12/18 00:17:46;;;;;;;2.38;1.30;;;8.20;90.90;;;;;;5009234;28;20073;-65
2021/12/18 00:20:15;;;;;;;2.35;1.92;;;8.20;91.10;;;;;;5004542;28;20401;-64
2021/12/18 00:22:41;;;;;;;1.80;1.30;;;8.20;91.10;;;;;;5006660;28;20045;-64
2021/12/18 00:25:07;;;;;;;3.30;1.65;;;8.20;91.00;;;;;;5016245;28;20030;-64
2021/12/18 00:27:33;;;;;;;2.90;1.65;;;8.20;91.10;;;;;;5016072;28;20041;-65
2021/12/18 00:29:59;;;;;;;1.95;1.52;;;8.20;91.10;;;;;;5011200;28;20040;-64
2021/12/18 00:32:25;;;;;;;3.58;2.00;;;8.20;91.20;;;;;;5007183;28;20144;-64
2021/12/18 00:34:51;;;;;;;2.58;1.65;;;8.20;91.30;;;;;;5007497;28;20490;-65
2021/12/18 00:37:16;;;;;;;2.10;1.60;;;8.10;91.50;;;;;;5008184;28;20397;-65
2021/12/18 00:39:53;;;;;;;4.10;1.83;;;8.10;91.50;;;;;;5010815;28;20030;-65
2021/12/18 00:42:24;;;;;;;2.63;1.65;;;8.20;91.60;;;;;;5016700;28;20469;-65
2021/12/18 00:44:50;;;;;;;3.42;2.08;;;8.20;91.50;;;;;;5014154;28;20030;-65
2021/12/18 00:47:15;;;;;;;3.80;2.13;;;8.20;91.40;;;;;;5008393;28;20040;-65
2021/12/18 00:49:41;;;;;;;3.15;1.92;;;8.20;91.50;;;;;;5005530;28;20155;-65
2021/12/18 00:52:08;;;;;;;4.00;2.30;;;8.20;91.50;;;;;;5016065;28;20068;-65
2021/12/18 00:54:35;;;;;;;4.13;2.20;;;8.20;91.50;;;;;;5019364;28;20511;-65
2021/12/18 00:57:01;;;;;;;3.85;2.20;;;8.20;91.50;;;;;;5015073;28;20776;-65
2021/12/18 00:59:27;;;;;;;6.30;2.20;;;8.10;91.60;;;;;;5007237;28;20038;-65
2021/12/18 01:01:53;;;;;;;3.22;1.80;;;8.10;91.80;;;;;;5015456;28;20026;-65
2021/12/18 01:04:19;;;;;;;5.20;1.98;;;8.10;91.60;;;;;;5012765;28;20785;-65
2021/12/18 01:06:45;;;;;;;3.20;1.90;;;8.10;91.60;;;;;;5010877;28;20041;-65
2021/12/18 01:09:11;;;;;;;5.30;2.20;;;8.10;91.70;;;;;;5019464;28;20679;-65
2021/12/18 01:16:58;;;;;;;5.57;2.53;;;8.10;91.90;;;;;;5009162;28;20164;-65
2021/12/18 01:24:53;;;;;;;3.67;2.47;;;8.00;92.30;;;;;;5010215;28;20041;-65
2021/12/18 01:27:19;;;;;;;3.97;2.22;;;8.10;92.30;;;;;;5010881;28;20029;-65
2021/12/18 01:29:45;;;;;;;3.33;2.03;;;8.10;92.20;;;;;;5012598;28;20115;-65
2021/12/18 01:32:12;;;;;;;3.25;1.92;;;8.10;92.00;;;;;;5014932;28;20091;-65
2021/12/18 01:34:38;;;;;;;3.08;2.20;;;8.10;92.00;;;;;;5011977;28;20100;-65
2021/12/18 01:37:05;;;;;;;5.68;2.20;;;8.10;92.10;;;;;;5016602;28;20032;-65
2021/12/18 01:39:31;;;;;;;3.78;2.50;;;8.10;92.20;;;;;;5008400;28;20036;-66
2021/12/18 01:51:16;;;;;;;3.40;2.10;;;8.10;92.10;;;;;;5013004;28;20115;-65
2021/12/18 01:52:39;;;;;;;3.75;2.08;;;8.10;92.20;;;;;;5010967;28;20104;-64
2021/12/18 01:55:06;;;;;;;4.15;2.35;;;8.10;92.20;;;;;;5014216;28;20136;-64
2021/12/18 01:57:32;;;;;;;3.08;1.88;;;8.10;92.30;;;;;;5005755;28;20406;-64
2021/12/18 01:59:58;;;;;;;4.03;2.53;;;8.10;92.30;;;;;;5006878;28;20555;-65
2021/12/18 02:02:24;;;;;;;5.63;2.60;;;8.10;92.40;;;;;;5026956;28;20025;-65
2021/12/18 02:04:50;;;;;;;6.40;3.03;;;8.10;92.40;;;;;;5016604;28;20041;-65
2021/12/18 02:07:17;;;;;;;4.82;2.90;;;8.10;92.40;;;;;;5012971;28;20036;-65
2021/12/18 02:10:06;;;;;;;5.18;3.05;;;8.10;92.40;;;;;;5012030;28;20116;-65
2021/12/18 02:12:49;;;;;;;5.72;3.15;;;8.10;92.40;;;;;;5003172;28;20045;-65
2021/12/18 02:20:46;;;;;;;6.30;3.03;;;8.10;92.50;;;;;;5010478;28;20520;-65
2021/12/18 02:23:12;;;;;;;5.65;2.67;;;8.10;92.50;;;;;;5006983;28;20111;-65
2021/12/18 02:25:39;;;;;;;5.05;2.90;;;8.20;92.50;;;;;;5000824;28;20511;-65
2021/12/18 02:28:16;;;;;;;4.68;2.45;;;8.10;92.50;;;;;;5005914;28;20038;-65
2021/12/18 02:30:42;;;;;;;5.32;2.75;;;8.10;92.50;;;;;;5010357;28;20033;-65
2021/12/18 02:33:08;;;;;;;11.75;3.50;;;8.20;92.40;;;;;;5015498;28;20095;-65
2021/12/18 02:35:40;;;;;;;4.80;2.67;;;8.20;92.50;;;;;;5010055;28;20112;-65
2021/12/18 02:38:11;;;;;;;4.38;2.42;;;8.20;92.50;;;;;;5006457;28;20835;-65
2021/12/18 02:43:31;;;;;;;5.45;2.80;;;8.20;92.50;;;;;;5013487;28;20060;-65
2021/12/18 02:46:06;;;;;;;7.60;3.72;;;8.20;92.60;;;;;;5013322;28;20038;-65
2021/12/18 02:48:33;;;;;;;6.82;3.65;;;8.20;92.60;;;;;;5012279;28;20037;-65
2021/12/18 02:50:59;;;;;;;10.27;3.80;;;8.20;92.70;;;;;;5009764;28;20048;-65
2021/12/18 02:53:26;;;;;;;8.43;3.75;;;8.20;92.70;;;;;;5006562;28;20064;-65
2021/12/18 02:55:58;;;;;;;6.55;3.15;;;8.20;92.60;;;;;;5006700;28;20044;-66
2021/12/18 02:58:24;;;;;;;8.48;4.00;;;8.20;92.60;;;;;;5009424;28;20128;-66
2021/12/18 03:00:52;;;;;;;6.38;3.70;;;8.20;92.60;;;;;;5013719;28;20112;-65
2021/12/18 03:03:19;;;;;;;8.20;3.80;;;8.20;92.70;;;;;;5005343;28;20105;-66
2021/12/18 03:05:57;;;;;;;7.68;3.60;;;8.20;92.70;;;;;;5004620;28;20038;-65
2021/12/18 03:08:36;;;;;;;7.40;3.60;;;8.20;92.50;;;;;;5011258;28;20042;-65
2021/12/18 03:26:48;;;;;;;8.55;3.13;;;8.30;92.60;;;;;;5009773;28;20128;-65
2021/12/18 03:29:14;;;;;;;5.45;3.28;;;8.30;92.60;;;;;;5014819;28;20030;-65
2021/12/18 03:31:39;;;;;;;6.07;3.13;;;8.30;92.60;;;;;;5003536;28;20034;-65
2021/12/18 03:34:05;;;;;;;6.68;3.83;;;8.30;92.70;;;;;;5009121;28;20029;-65
2021/12/18 03:36:31;;;;;;;6.45;3.08;;;8.30;92.70;;;;;;5005017;28;20400;-64
2021/12/18 03:38:57;;;;;;;5.97;2.67;;;8.30;92.80;;;;;;5006431;28;20046;-64
2021/12/18 03:41:22;;;;;;;5.72;3.10;;;8.30;92.80;;;;;;5011935;28;20097;-66
2021/12/18 03:43:48;;;;;;;5.50;2.67;;;8.30;92.80;;;;;;5012184;28;20117;-66
2021/12/18 03:46:14;;;;;;;6.13;3.03;;;8.30;92.70;;;;;;5008224;28;20022;-67
2021/12/18 03:48:39;;;;;;;5.20;2.75;;;8.40;92.70;;;;;;5009861;28;20048;-64
2021/12/18 03:51:05;;;;;;;7.13;3.28;;;8.30;92.80;;;;;;5004769;28;20038;-64
2021/12/18 03:53:31;;;;;;;5.97;3.00;;;8.40;92.80;;;;;;5016015;28;20045;-66
2021/12/18 03:55:56;;;;;;;8.23;3.53;;;8.30;92.70;;;;;;5011726;28;20041;-66
2021/12/18 03:58:22;;;;;;;6.18;2.80;;;8.30;92.80;;;;;;5012129;28;20588;-68
2021/12/18 04:00:48;;;;;;;5.45;2.88;;;8.40;92.80;;;;;;5013048;28;20033;-65
2021/12/18 04:03:13;;;;;;;5.93;3.10;;;8.40;92.70;;;;;;5008753;28;20470;-65
2021/12/18 04:05:39;;;;;;;5.93;2.83;;;8.40;92.70;;;;;;5006958;28;20056;-66
2021/12/18 04:08:08;;;;;;;7.03;3.05;;;8.40;92.60;;;;;;5020416;28;20444;-65
2021/12/18 04:10:37;;;;;;;10.18;4.10;;;8.40;92.60;;;;;;5014023;28;20140;-67
2021/12/18 04:13:04;;;;;;;6.53;3.10;;;8.40;92.70;;;;;;5012409;28;20037;-67
2021/12/18 04:15:30;;;;;;;5.75;2.88;;;8.40;92.70;;;;;;5014508;28;20046;-68
2021/12/18 04:17:55;;;;;;;7.93;3.30;;;8.40;92.60;;;;;;5005268;28;20026;-65
2021/12/18 04:20:21;;;;;;;6.05;3.63;;;8.40;92.70;;;;;;5015946;28;20032;-67
2021/12/18 04:22:47;;;;;;;7.68;2.85;;;8.40;92.60;;;;;;5015868;28;20141;-67
2021/12/18 04:25:12;;;;;;;6.03;2.95;;;8.40;92.70;;;;;;5014147;28;20025;-67
2021/12/18 04:27:38;;;;;;;6.50;3.50;;;8.40;92.80;;;;;;5013567;28;20243;-67
2021/12/18 04:30:04;;;;;;;5.65;3.03;;;8.40;92.70;;;;;;5016301;28;20430;-68
2021/12/18 04:32:30;;;;;;;6.38;2.92;;;8.40;92.70;;;;;;5017611;28;20048;-67
2021/12/18 04:34:57;;;;;;;7.22;3.30;;;8.40;92.60;;;;;;5016673;28;20038;-68
2021/12/18 04:37:23;;;;;;;5.95;3.33;;;8.40;92.70;;;;;;5015184;28;20357;-67
2021/12/18 04:39:50;;;;;;;5.18;3.03;;;8.40;92.70;;;;;;5007986;28;20029;-68
2021/12/18 04:42:15;;;;;;;7.15;3.30;;;8.40;92.80;;;;;;5017664;28;20053;-68
2021/12/18 04:44:41;;;;;;;9.60;4.28;;;8.40;92.80;;;;;;5004002;28;20061;-67
2021/12/18 04:47:07;;;;;;;9.90;4.05;;;8.50;92.70;;;;;;5011577;28;20492;-67
2021/12/18 04:49:32;;;;;;;8.80;3.50;;;8.50;92.70;;;;;;5016700;28;20081;-68
2021/12/18 04:51:58;;;;;;;8.50;4.18;;;8.40;92.80;;;;;;5012640;28;20069;-67
2021/12/18 04:54:24;;;;;;;7.50;3.58;;;8.40;92.60;;;;;;5011891;28;20033;-67
2021/12/18 04:56:50;;;;;;;7.93;3.42;;;8.40;92.70;;;;;;5007600;28;20060;-68
2021/12/18 04:59:16;;;;;;;6.85;3.38;;;8.40;92.70;;;;;;5008258;28;20036;-67
2021/12/18 05:01:42;;;;;;;6.80;3.55;;;8.50;92.50;;;;;;5010993;28;20556;-68
2021/12/18 05:04:11;;;;;;;5.15;3.13;;;8.40;92.80;;;;;;5016080;28;20100;-68
2021/12/18 05:06:44;;;;;;;7.07;3.72;;;8.50;92.60;;;;;;5010327;28;20046;-67
2021/12/18 05:09:10;;;;;;;6.63;4.13;;;8.40;92.60;;;;;;5010635;28;20041;-67
2021/12/18 05:11:36;;;;;;;6.97;3.88;;;8.40;92.70;;;;;;5004801;28;20038;-68
2021/12/18 05:14:02;;;;;;;8.07;4.03;;;8.40;92.60;;;;;;5009187;28;20153;-67
2021/12/18 05:16:27;;;;;;;4.80;3.10;;;8.40;92.60;;;;;;5011717;28;20119;-68
2021/12/18 05:18:53;;;;;;;5.75;3.25;;;8.40;92.60;;;;;;5010199;28;20029;-67
2021/12/18 05:21:19;;;;;;;4.03;2.95;;;8.40;92.60;;;;;;5015810;28;20049;-67
2021/12/18 05:23:45;;;;;;;4.93;3.08;;;8.50;92.60;;;;;;5010614;28;20561;-68
2021/12/18 05:26:11;;;;;;;4.07;3.05;;;8.40;92.60;;;;;;5003961;28;20030;-67
2021/12/18 05:28:36;;;;;;;5.15;3.00;;;8.50;92.60;;;;;;5002065;28;20927;-67
2021/12/18 05:31:02;;;;;;;4.47;2.85;;;8.50;92.60;;;;;;5013551;28;20065;-67
2021/12/18 05:33:28;;;;;;;4.63;2.80;;;8.50;92.60;;;;;;5012988;28;20041;-67
2021/12/18 05:35:53;;;;;;;4.60;3.15;;;8.50;92.60;;;;;;5014405;28;20540;-68
2021/12/18 05:38:19;;;;;;;4.13;2.65;;;8.50;92.70;;;;;;5005174;28;20026;-67
2021/12/18 05:40:45;;;;;;;4.88;3.00;;;8.50;92.60;;;;;;5010482;28;20474;-67
2021/12/18 05:43:10;;;;;;;5.03;2.75;;;8.40;92.70;;;;;;5008134;28;20029;-67
2021/12/18 05:45:37;;;;;;;3.53;2.75;;;8.40;92.70;;;;;;5010594;28;20375;-68
2021/12/18 05:48:04;;;;;;;3.63;2.92;;;8.40;92.80;;;;;;5018337;28;20556;-67
2021/12/18 05:50:30;;;;;;;4.97;3.00;;;8.40;92.80;;;;;;5010430;28;20834;-67
2021/12/18 05:52:58;;;;;;;5.50;3.60;;;8.50;92.80;;;;;;5006542;28;20033;-67
2021/12/18 05:55:25;;;;;;;3.85;2.95;;;8.50;92.90;;;;;;5006511;28;20042;-68
2021/12/18 05:57:52;;;;;;;5.38;3.40;;;8.50;92.80;;;;;;5014353;28;20030;-68
2021/12/18 06:00:19;;;;;;;4.10;2.88;;;8.50;92.80;;;;;;5014554;28;20112;-67
2021/12/18 06:02:45;;;;;;;4.32;2.95;;;8.50;92.80;;;;;;5014433;28;20826;-67
2021/12/18 06:05:11;;;;;;;4.90;3.10;;;8.50;92.80;;;;;;5018269;28;20021;-66
2021/12/18 06:07:57;;;;;;;7.03;3.85;;;8.50;92.80;;;;;;5019048;28;20132;-66
2021/12/18 06:10:25;;;;;;;4.40;3.30;;;8.50;92.80;;;;;;5013930;28;20036;-66
2021/12/18 06:12:51;;;;;;;6.28;3.20;;;8.50;92.70;;;;;;5013561;28;20044;-66
2021/12/18 06:15:17;;;;;;;4.93;3.15;;;8.50;92.80;;;;;;5010184;28;20030;-66
2021/12/18 06:17:43;;;;;;;6.05;3.47;;;8.50;92.70;;;;;;5007918;28;20042;-66
2021/12/18 06:20:09;;;;;;;4.78;3.42;;;8.50;92.70;;;;;;5007730;28;20079;-66
2021/12/18 06:22:35;;;;;;;4.55;3.08;;;8.50;92.80;;;;;;5010162;28;20044;-66
2021/12/18 06:25:01;;;;;;;4.63;3.20;;;8.40;92.80;;;;;;5007583;28;20022;-66
2021/12/18 06:27:27;;;;;;;4.95;3.45;;;8.40;92.80;;;;;;5010270;28;20048;-66
2021/12/18 06:29:53;;;;;;;4.35;3.28;;;8.40;92.80;;;;;;5009776;28;20154;-66
2021/12/18 06:32:18;;;;;;;6.22;3.38;;;8.40;92.80;;;;;;5010047;28;20512;-66
2021/12/18 06:34:44;;;;;;;3.97;2.85;;;8.40;92.70;;;;;;5007079;28;20134;-66
2021/12/18 06:37:09;;;;;;;4.90;3.60;;;8.40;92.70;;;;;;5007112;28;20022;-66
2021/12/18 06:39:35;;;;;;;5.97;2.88;;;8.50;92.70;;;;;;5012725;28;20060;-66
2021/12/18 06:42:01;;;;;;;3.75;2.83;;;8.50;92.70;;;;;;5007613;28;20036;-66
2021/12/18 06:44:28;;;;;;;4.32;3.28;;;8.40;92.70;;;;;;5006251;28;20095;-67
2021/12/18 06:46:56;;;;;;;5.82;2.88;;;8.40;92.70;;;;;;5010237;28;20483;-66
2021/12/18 06:49:22;;;;;;;5.95;3.80;;;8.40;92.80;;;;;;5005850;28;20026;-66
2021/12/18 06:51:48;;;;;;;4.95;3.58;;;8.40;92.70;;;;;;5010864;28;20590;-66
2021/12/18 06:54:14;;;;;;;6.68;3.80;;;8.40;92.70;;;;;;5009900;28;20021;-66
2021/12/18 06:56:39;;;;;;;5.80;3.72;;;8.40;92.70;;;;;;5009863;28;20073;-68
2021/12/18 06:59:05;;;;;;;5.35;3.75;;;8.40;92.70;;;;;;5011052;28;20033;-66
2021/12/18 07:01:32;;;;;;;5.50;3.63;;;8.50;92.60;;;;;;5008398;28;20095;-66
2021/12/18 07:03:58;;;;;;;5.72;2.90;;;8.40;92.70;;;;;;5008353;28;20080;-66
2021/12/18 07:06:24;;;;;;;4.07;2.70;;;8.40;92.80;;;;;;5008966;28;20117;-68
2021/12/18 07:08:50;;;;;;;5.60;3.58;;;8.40;92.80;;;;;;5014100;28;20083;-66
2021/12/18 07:11:16;;;;;;;5.38;3.15;;;8.40;92.80;;;;;;5010294;28;20432;-66
2021/12/18 07:13:42;;;;;;;4.97;3.28;;;8.40;92.80;;;;;;5008233;28;20563;-66
2021/12/18 07:16:08;;;;;;;6.53;3.17;;;8.40;93.00;;;;;;5008116;28;20033;-66
2021/12/18 07:18:34;;;;;;;4.88;3.00;;;8.40;92.70;;;;;;5015383;28;20037;-66
2021/12/18 07:21:00;;;;;;;5.00;3.00;;;8.40;92.60;;;;;;5020539;28;20042;-65
2021/12/18 07:23:26;;;;;;;6.20;3.65;;;8.40;92.60;;;;;;5009054;28;20026;-66
2021/12/18 07:25:51;;;;;;;5.63;3.10;;;8.40;92.60;;;;;;5013084;28;20568;-66
2021/12/18 07:28:17;;;;;;;4.82;3.17;;;8.40;92.70;;;;;;5011787;28;20153;-66
2021/12/18 07:30:43;;;;;;;5.13;3.40;;;8.40;92.70;;;;;;5010191;28;20040;-66
2021/12/18 07:33:11;;;;;;;4.95;2.80;;;8.40;92.80;;;;;;5008701;28;20022;-66
2021/12/18 07:35:39;;;;;;;6.25;3.33;;;8.40;92.70;;;;;;5014024;28;20039;-66
2021/12/18 07:38:05;;;;;;;7.03;4.13;;;8.40;92.70;;;;;;5016668;28;20037;-65
2021/12/18 07:40:31;;;;;;;5.05;3.70;;;8.40;92.80;;;;;;5008056;28;20076;-66
2021/12/18 07:42:57;;;;;;;4.32;3.17;;;8.40;92.80;;;;;;5013225;28;20041;-66
2021/12/18 07:45:22;;;;;;;8.50;4.30;;;8.40;92.80;;;;;;5018479;28;20042;-66
2021/12/18 07:47:48;;;;;;;6.90;4.22;;;8.40;92.90;;;;;;5011401;28;20045;-66
2021/12/18 07:50:18;;;;;;;6.32;4.05;;;8.40;92.80;;;;;;5009477;28;20485;-66
2021/12/18 07:52:49;;;;;;;6.05;3.70;;;8.40;92.80;;;;;;5006621;28;20040;-66
2021/12/18 07:55:16;;;;;;;7.38;4.18;;;8.40;92.90;;;;;;5013361;28;20143;-66
2021/12/18 07:57:42;;;;;;;7.13;4.22;;;8.40;92.90;;;;;;5009821;28;20731;-66
2021/12/18 08:00:10;;;;;;;7.63;4.20;;;8.40;92.80;;;;;;5008166;28;20033;-65
2021/12/18 08:02:37;;;;;;;8.10;5.05;;;8.40;92.90;;;;;;5013224;28;20673;-68
2021/12/18 08:05:03;;;;;;;8.85;4.85;;;8.40;92.80;;;;;;5013920;28;20044;-67
2021/12/18 08:07:28;;;;;;;10.48;5.60;;;8.40;92.80;;;;;;5015538;28;20634;-66
2021/12/18 08:09:54;;;;;;;11.60;6.57;;;8.40;92.80;;;;;;5007752;28;20033;-67
2021/12/18 08:12:20;;;;;;;9.70;4.50;;;8.40;92.80;;;;;;5014445;28;20034;-66
2021/12/18 08:14:45;;;;;;;6.95;4.50;;;8.50;92.80;;;;;;5011489;28;20061;-66
2021/12/18 08:17:11;;;;;;;5.85;3.80;;;8.50;92.70;;;;;;5011370;28;20144;-66
2021/12/18 08:19:37;;;;;;;7.10;4.10;;;8.40;92.60;;;;;;5013376;28;20045;-66
2021/12/18 08:22:03;;;;;;;6.53;3.75;;;8.50;92.80;;;;;;5015665;28;20900;-69
2021/12/18 08:24:29;;;;;;;5.15;3.08;;;8.40;92.70;;;;;;5012110;28;20386;-68
2021/12/18 08:26:55;;;;;;;5.13;3.15;;;8.50;92.70;;;;;;5014828;28;20048;-67
2021/12/18 08:29:21;;;;;;;5.75;2.63;;;8.50;92.60;;;;;;5012351;28;20033;-68
2021/12/18 08:31:47;;;;;;;5.03;2.65;;;8.50;92.30;;;;;;5014054;28;20812;-67
2021/12/18 08:34:13;;;;;;;4.00;2.47;;;8.50;92.30;;;;;;5016334;28;20076;-66
2021/12/18 08:36:39;;;;;;;5.68;3.10;;;8.50;92.20;;;;;;5011546;28;20042;-66
2021/12/18 08:39:05;;;;;;;8.77;4.40;;;8.50;92.20;;;;;;5014250;28;20040;-66
2021/12/18 08:41:33;;;;;;;7.43;4.40;;;8.50;92.30;;;;;;5017209;28;20084;-66
2021/12/18 08:43:59;;;;;;;6.25;3.60;;;8.50;92.30;;;;;;5014054;28;20041;-66
2021/12/18 08:46:24;;;;;;;7.10;3.08;;;8.50;92.20;;;;;;5014367;28;20034;-65
2021/12/18 08:48:50;;;;;;;6.90;3.40;;;8.60;92.20;;;;;;5014561;28;20038;-66
2021/12/18 08:51:16;;;;;;;6.30;3.85;;;8.60;92.00;;;;;;5013045;28;20037;-66
2021/12/18 08:53:41;;;;;;;10.32;4.80;;;8.60;92.10;;;;;;5008265;28;20041;-66
2021/12/18 08:56:07;;;;;;;11.90;5.38;;;8.70;92.10;;;;;;5008061;28;20041;-66
2021/12/18 08:58:33;;;;;;;8.80;4.03;;;8.70;92.00;;;;;;5009628;28;20037;-66
2021/12/18 09:00:59;;;;;;;8.57;4.43;;;8.70;92.00;;;;;;5014485;28;20030;-67
2021/12/18 09:03:24;;;;;;;9.40;4.60;;;8.80;91.90;;;;;;5012944;28;20124;-66
2021/12/18 09:05:51;;;;;;;7.10;3.55;;;8.90;91.80;;;;;;5014827;28;20477;-66
2021/12/18 09:08:16;;;;;;;8.02;3.58;;;8.90;91.80;;;;;;5010566;28;20088;-66
2021/12/18 09:10:42;;;;;;;9.55;4.72;;;8.90;91.80;;;;;;5004662;28;20493;-66
2021/12/18 09:13:08;;;;;;;11.00;4.40;;;8.90;91.80;;;;;;5014212;28;20557;-66
2021/12/18 09:15:34;;;;;;;9.48;3.85;;;9.00;91.80;;;;;;5011970;28;20089;-67
2021/12/18 09:18:00;;;;;;;9.25;4.72;;;8.90;91.90;;;;;;5009014;28;20046;-67
2021/12/18 09:20:26;;;;;;;12.32;5.10;;;8.90;91.90;;;;;;5010024;28;20079;-67
2021/12/18 09:22:52;;;;;;;14.43;6.03;;;8.90;91.90;;;;;;5006081;28;20041;-68
2021/12/18 09:25:17;;;;;;;20.60;7.10;;;8.90;92.40;;;;;;5015739;28;20824;-67
2021/12/18 09:27:43;;;;;;;29.90;8.45;;;8.90;92.10;;;;;;5014336;28;20033;-67
2021/12/18 09:30:12;;;;;;;25.05;7.53;;;8.90;92.10;;;;;;5010393;28;20083;-67
2021/12/18 09:32:39;;;;;;;19.60;7.80;;;8.90;92.10;;;;;;5010956;28;20026;-67
2021/12/18 09:35:06;;;;;;;21.83;8.30;;;8.90;92.20;;;;;;5008126;28;20140;-66
2021/12/18 09:37:32;;;;;;;19.55;8.20;;;8.90;92.10;;;;;;5008687;28;20049;-67
2021/12/18 09:39:58;;;;;;;14.48;6.03;;;8.90;92.30;;;;;;5007571;28;20098;-66
2021/12/18 09:42:24;;;;;;;11.82;4.82;;;9.00;92.40;;;;;;5006495;28;20030;-66
2021/12/18 09:44:51;;;;;;;10.10;5.07;;;8.90;92.50;;;;;;5007252;28;20044;-66
2021/12/18 09:47:19;;;;;;;9.35;5.10;;;8.90;92.60;;;;;;5014909;28;20088;-68
2021/12/18 09:49:45;;;;;;;13.75;4.85;;;9.00;92.40;;;;;;5005018;28;20512;-67
2021/12/18 09:52:11;;;;;;;9.05;4.40;;;9.00;92.50;;;;;;5014283;28;20025;-68
2021/12/18 09:54:37;;;;;;;7.35;3.92;;;9.00;92.40;;;;;;5003113;28;20042;-67
2021/12/18 09:57:03;;;;;;;10.85;4.70;;;9.00;92.50;;;;;;5007192;28;20385;-67
2021/12/18 09:59:29;;;;;;;7.55;3.95;;;9.00;92.40;;;;;;5018202;28;20035;-67
2021/12/18 10:01:55;;;;;;;11.38;4.38;;;9.10;92.50;;;;;;5007003;28;20552;-67
2021/12/18 10:04:35;;;;;;;10.85;5.30;;;9.10;92.40;;;;;;5009409;28;20029;-66
2021/12/18 10:07:16;;;;;;;10.40;5.00;;;9.10;92.40;;;;;;5004077;28;20112;-67
2021/12/18 10:09:43;;;;;;;11.65;5.85;;;9.10;92.40;;;;;;5009588;28;20044;-67
2021/12/18 10:12:16;;;;;;;12.07;6.00;;;9.10;92.20;;;;;;5009145;28;20059;-66
2021/12/18 10:15:07;;;;;;;10.13;5.93;;;9.10;92.40;;;;;;5007719;28;20022;-67
2021/12/18 10:17:36;;;;;;;8.98;4.13;;;9.10;92.40;;;;;;5004812;28;20046;-68
2021/12/18 10:20:11;;;;;;;6.53;3.88;;;9.10;92.40;;;;;;5007779;28;20064;-67
2021/12/18 10:23:05;;;;;;;5.18;3.13;;;9.10;92.50;;;;;;5009301;28;20044;-67
2021/12/18 10:25:40;;;;;;;4.65;3.42;;;9.10;92.30;;;;;;5007517;28;20034;-67
2021/12/18 10:28:15;;;;;;;6.97;3.90;;;9.10;92.30;;;;;;5010156;28;20803;-67
2021/12/18 10:30:52;;;;;;;6.40;3.92;;;9.10;92.20;;;;;;5011756;28;20694;-65
2021/12/18 10:33:18;;;;;;;5.22;3.17;;;9.10;92.30;;;;;;5010598;28;20064;-65
2021/12/18 10:35:52;;;;;;;6.25;3.03;;;9.10;92.40;;;;;;5006322;28;20044;-65
2021/12/18 10:38:51;;;;;;;5.65;3.08;;;9.10;92.40;;;;;;5006271;28;20034;-65
2021/12/18 10:41:32;;;;;;;4.95;2.88;;;9.20;92.40;;;;;;5000682;28;20563;-65
2021/12/18 10:44:10;;;;;;;5.97;3.72;;;9.20;92.50;;;;;;4999315;28;20045;-65
2021/12/18 10:46:39;;;;;;;4.88;3.08;;;9.20;92.50;;;;;;5008623;28;20466;-65
2021/12/18 10:49:14;;;;;;;6.82;3.00;;;9.20;92.40;;;;;;5009999;28;20141;-65
2021/12/18 10:51:41;;;;;;;3.20;2.08;;;9.20;92.30;;;;;;5006257;28;20497;-65
2021/12/18 10:54:16;;;;;;;3.55;1.90;;;9.30;92.30;;;;;;5011232;28;20033;-65
2021/12/18 10:56:46;;;;;;;2.83;2.03;;;9.30;92.30;;;;;;5009899;28;20036;-65
2021/12/18 10:59:31;;;;;;;3.13;1.48;;;9.30;92.30;;;;;;5010781;28;20034;-65
2021/12/18 11:02:09;;;;;;;3.80;1.98;;;9.40;92.40;;;;;;5008209;28;20076;-65
2021/12/18 11:04:38;;;;;;;3.55;2.53;;;9.40;92.30;;;;;;5004443;28;20509;-66
2021/12/18 11:07:16;;;;;;;2.70;1.88;;;9.40;92.40;;;;;;5011110;28;20064;-65
2021/12/18 11:09:48;;;;;;;2.88;1.92;;;9.40;92.30;;;;;;5001796;28;20026;-65
2021/12/18 11:15:01;;;;;;;4.22;2.10;;;9.30;92.30;;;;;;5002241;28;20041;-66
2021/12/18 11:17:27;;;;;;;3.03;2.05;;;9.30;92.40;;;;;;5002175;28;20038;-65
2021/12/18 11:19:54;;;;;;;3.30;1.85;;;9.40;92.40;;;;;;5004697;28;20041;-66
2021/12/18 11:22:20;;;;;;;2.40;1.17;;;9.40;92.30;;;;;;5009801;28;20097;-65
2021/12/18 11:25:05;;;;;;;2.85;1.60;;;9.40;92.20;;;;;;4989152;28;20025;-65
2021/12/18 11:27:33;;;;;;;2.00;1.58;;;9.50;92.30;;;;;;5007227;28;20065;-65
2021/12/18 11:30:14;;;;;;;1.80;1.33;;;9.50;92.40;;;;;;5004104;28;20092;-65
2021/12/18 11:32:42;;;;;;;1.60;1.10;;;9.50;92.20;;;;;;5000954;28;20605;-65
2021/12/18 11:35:10;;;;;;;1.98;1.00;;;9.50;92.20;;;;;;5003634;28;20075;-68
2021/12/18 11:37:43;;;;;;;0.90;0.80;;;9.60;92.20;;;;;;5015121;28;20033;-68
2021/12/18 11:40:15;;;;;;;2.05;1.33;;;9.60;92.10;;;;;;5006441;28;20038;-67
2021/12/18 11:42:42;;;;;;;2.22;1.75;;;9.60;91.80;;;;;;5005879;28;20034;-67
2021/12/18 11:45:08;;;;;;;3.03;2.15;;;9.60;91.60;;;;;;5006591;28;20034;-68
2021/12/18 11:47:38;;;;;;;2.90;1.10;;;9.60;91.80;;;;;;5010367;28;20115;-68
2021/12/18 11:50:19;;;;;;;2.05;0.88;;;9.50;91.80;;;;;;5006195;28;20120;-68
2021/12/18 11:53:11;;;;;;;3.47;1.30;;;9.50;91.70;;;;;;5011937;28;20516;-68
2021/12/18 11:55:48;;;;;;;1.70;1.08;;;9.60;92.10;;;;;;5011885;28;20065;-69
2021/12/18 11:58:21;;;;;;;2.05;1.10;;;9.60;92.00;;;;;;5011411;28;20029;-64
2021/12/18 12:00:51;;;;;;;2.03;1.25;;;9.60;91.80;;;;;;5007734;28;20500;-64
2021/12/18 12:03:35;;;;;;;2.50;1.60;;;9.60;92.00;;;;;;5008242;28;20033;-64
2021/12/18 12:06:18;;;;;;;2.03;1.58;;;9.60;92.10;;;;;;5013903;28;20112;-65
2021/12/18 12:08:44;;;;;;;2.05;1.02;;;9.60;92.10;;;;;;5013663;28;20034;-65
2021/12/18 12:11:27;;;;;;;3.63;2.30;;;9.60;92.00;;;;;;5011968;28;20872;-65
2021/12/18 12:13:53;;;;;;;4.82;1.48;;;9.60;92.00;;;;;;5010281;28;20033;-64
2021/12/18 12:16:39;;;;;;;7.20;3.00;;;9.60;91.80;;;;;;5007826;28;20068;-66
2021/12/18 12:19:06;;;;;;;4.73;2.10;;;9.70;91.70;;;;;;5015175;28;20068;-65
2021/12/18 12:21:43;;;;;;;1.40;1.00;;;9.70;91.80;;;;;;5014881;28;20038;-66
2021/12/18 12:24:09;;;;;;;1.58;1.23;;;9.60;91.80;;;;;;5008999;28;20060;-64
2021/12/18 12:26:36;;;;;;;0.73;0.73;;;9.60;92.00;;;;;;5008531;28;20056;-66
2021/12/18 12:29:03;;;;;;;2.88;1.63;;;9.70;92.00;;;;;;4996114;28;20121;-66
2021/12/18 12:31:29;;;;;;;1.75;1.27;;;9.70;92.00;;;;;;5011719;28;20053;-66
2021/12/18 12:34:21;;;;;;;2.08;1.30;;;9.70;92.10;;;;;;5009629;28;20049;-67
2021/12/18 12:36:48;;;;;;;2.28;1.65;;;9.70;92.10;;;;;;5008187;28;20042;-67
2021/12/18 12:39:15;;;;;;;2.30;1.70;;;9.70;92.00;;;;;;5011486;28;20036;-66
2021/12/18 12:41:49;;;;;;;1.92;1.02;;;9.70;92.10;;;;;;5003581;28;20112;-66
2021/12/18 12:44:29;;;;;;;1.33;1.02;;;9.80;91.90;;;;;;5009919;28;20034;-67
2021/12/18 12:47:15;;;;;;;0.85;0.68;;;9.80;92.00;;;;;;5010767;28;20034;-67
2021/12/18 12:49:42;;;;;;;3.13;1.02;;;9.80;91.80;;;;;;5010824;28;20096;-68
2021/12/18 12:52:19;;;;;;;0.70;0.70;;;9.80;91.80;;;;;;5009174;28;20021;-67
2021/12/18 12:55:06;;;;;;;1.98;1.40;;;9.80;92.00;;;;;;5016324;28;20033;-67
2021/12/18 12:57:41;;;;;;;1.30;0.80;;;9.80;91.90;;;;;;5019153;28;20600;-67
2021/12/18 13:00:07;;;;;;;2.13;1.00;;;9.80;92.00;;;;;;5014509;28;20124;-67
2021/12/18 13:02:39;;;;;;;2.20;1.40;;;9.80;92.00;;;;;;5008805;28;20525;-66
2021/12/18 13:05:12;;;;;;;3.47;1.40;;;9.80;91.90;;;;;;5011495;28;20029;-67
2021/12/18 13:07:58;;;;;;;4.13;2.08;;;9.80;91.90;;;;;;5012312;28;20038;-67
2021/12/18 13:10:26;;;;;;;4.70;2.47;;;9.80;91.90;;;;;;5016880;28;20033;-67
2021/12/18 13:13:10;;;;;;;2.20;1.50;;;9.70;91.90;;;;;;5008986;28;20038;-67
2021/12/18 13:15:49;;;;;;;2.25;1.50;;;9.60;92.10;;;;;;5012869;28;20041;-67
2021/12/18 13:18:15;;;;;;;8.50;2.50;;;9.60;92.20;;;;;;5011807;28;20328;-67
2021/12/18 13:20:55;;;;;;;4.47;3.20;;;9.60;92.30;;;;;;5012281;28;20462;-68
2021/12/18 13:23:46;;;;;;;4.88;2.67;;;9.60;92.20;;;;;;5003738;28;20433;-67
2021/12/18 13:26:33;;;;;;;4.55;2.55;;;9.60;92.30;;;;;;5008602;28;20043;-67
2021/12/18 13:29:03;;;;;;;2.25;1.60;;;9.50;92.40;;;;;;5007585;28;20049;-67
2021/12/18 13:31:33;;;;;;;1.77;1.65;;;9.50;92.40;;;;;;5013595;28;20071;-67
2021/12/18 13:34:05;;;;;;;1.50;1.40;;;9.50;92.40;;;;;;5006539;28;20030;-67
2021/12/18 13:36:42;;;;;;;2.13;1.40;;;9.50;92.40;;;;;;5010325;28;20038;-68
2021/12/18 13:39:11;;;;;;;1.38;1.27;;;9.50;92.50;;;;;;5010236;28;20033;-68
2021/12/18 13:41:37;;;;;;;2.65;1.98;;;9.50;92.50;;;;;;5010080;28;20045;-67
2021/12/18 13:44:03;;;;;;;5.90;3.45;;;9.60;92.50;;;;;;5008831;28;20052;-67
2021/12/18 13:46:31;;;;;;;4.45;2.80;;;9.60;92.40;;;;;;5009155;28;20040;-67
2021/12/18 13:48:57;;;;;;;5.07;3.72;;;9.60;92.50;;;;;;5012061;28;20068;-67